createdAt,value
2018-11-03T00:00:02.134Z,1013.55
2018-11-03T00:05:01.502Z,1013.54
2018-11-03T00:10:01.863Z,1013.61
2018-11-03T00:15:02.204Z,1013.62
2018-11-03T00:20:01.545Z,1013.58
2018-11-03T00:25:02.340Z,1013.58
2018-11-03T00:30:01.921Z,1013.62
2018-11-03T00:35:02.740Z,1013.66
2018-11-03T00:40:01.319Z,1013.62
2018-11-03T00:45:02.204Z,1013.7
2018-11-03T00:50:01.756Z,1013.73
2018-11-03T00:55:02.521Z,1013.71
2018-11-03T01:00:02.107Z,1013.65
2018-11-03T01:05:01.979Z,1013.64
2018-11-03T01:10:01.576Z,1013.76
2018-11-03T01:15:02.343Z,1013.67
2018-11-03T01:20:01.854Z,1013.62
2018-11-03T01:25:02.513Z,1013.56
2018-11-03T01:30:02.118Z,1013.53
2018-11-03T01:35:01.864Z,1013.55
2018-11-03T01:40:02.319Z,1013.52
2018-11-03T01:45:02.006Z,1013.54
2018-11-03T01:50:01.624Z,1013.51
2018-11-03T01:55:02.236Z,1013.66
2018-11-03T02:00:01.670Z,1013.58
2018-11-03T02:05:02.023Z,1013.61
2018-11-03T02:10:01.534Z,1013.6
2018-11-03T02:15:01.813Z,1013.63
2018-11-03T02:20:02.161Z,1013.63
2018-11-03T02:25:01.479Z,1013.66
2018-11-03T02:30:01.858Z,1013.62
2018-11-03T02:35:02.187Z,1013.55
2018-11-03T02:40:01.514Z,1013.57
2018-11-03T02:45:01.794Z,1013.49
2018-11-03T02:50:02.082Z,1013.55
2018-11-03T02:55:01.436Z,1013.51
2018-11-03T03:00:01.753Z,1013.47
2018-11-03T03:05:02.048Z,1013.51
2018-11-03T03:10:01.390Z,1013.64
2018-11-03T03:15:01.701Z,1013.59
2018-11-03T03:20:02.007Z,1013.61
2018-11-03T03:25:01.346Z,1013.62
2018-11-03T03:30:01.583Z,1013.66
2018-11-03T03:35:01.936Z,1013.58
2018-11-03T03:40:01.569Z,1013.57
2018-11-03T03:45:01.916Z,1013.58
2018-11-03T03:50:02.220Z,1013.59
2018-11-03T03:55:01.500Z,1013.65
2018-11-03T04:00:02.021Z,1013.59
2018-11-03T04:05:01.301Z,1013.63
2018-11-03T04:10:01.639Z,1013.7
2018-11-03T04:15:01.955Z,1013.7
2018-11-03T04:20:02.217Z,1013.7
2018-11-03T04:25:01.844Z,1013.75
2018-11-03T04:30:02.257Z,1013.62
2018-11-03T04:35:02.101Z,1013.83
2018-11-03T04:40:01.756Z,1013.84
2018-11-03T04:45:02.604Z,1013.75
2018-11-03T04:50:02.166Z,1013.71
2018-11-03T04:55:02.444Z,1013.69
2018-11-03T05:00:02.257Z,1013.62
2018-11-03T05:05:02.163Z,1013.62
2018-11-03T05:10:02.419Z,1013.57
2018-11-03T05:15:02.332Z,1013.64
2018-11-03T05:20:01.925Z,1013.61
2018-11-03T05:25:02.898Z,1013.61
2018-11-03T05:30:01.317Z,1013.61
2018-11-03T05:35:02.163Z,1013.61
2018-11-03T05:40:01.949Z,1013.63
2018-11-03T05:45:02.218Z,1013.66
2018-11-03T05:50:01.537Z,1013.64
2018-11-03T05:55:01.840Z,1013.66
2018-11-03T06:00:02.198Z,1013.69
2018-11-03T06:05:01.514Z,1013.72
2018-11-03T06:10:01.822Z,1013.79
2018-11-03T06:15:02.077Z,1013.79
2018-11-03T06:20:01.436Z,1013.93
2018-11-03T06:25:01.772Z,1013.98
2018-11-03T06:30:02.065Z,1013.92
2018-11-03T06:35:01.652Z,1014.04
2018-11-03T06:40:01.985Z,1014.07
2018-11-03T06:45:01.313Z,1014.09
2018-11-03T06:50:01.621Z,1014.08
2018-11-03T06:55:01.931Z,1014.16
2018-11-03T07:00:02.256Z,1014.18
2018-11-03T07:05:01.940Z,1014.21
2018-11-03T07:10:01.363Z,1014.12
2018-11-03T07:15:01.710Z,1014.19
2018-11-03T07:20:02.049Z,1014.11
2018-11-03T07:25:01.339Z,1014.08
2018-11-03T07:30:01.631Z,1014.13
2018-11-03T07:35:02.242Z,1014.2
2018-11-03T07:40:01.743Z,1014.22
2018-11-03T07:45:02.617Z,1014.26
2018-11-03T07:50:02.147Z,1014.14
2018-11-03T07:55:01.567Z,1014.18
2018-11-03T08:00:01.902Z,1014.24
2018-11-03T08:05:02.208Z,1014.09
2018-11-03T08:10:01.528Z,1014.09
2018-11-03T08:15:01.866Z,1014.04
2018-11-03T08:20:02.148Z,1013.99
2018-11-03T08:25:01.463Z,1013.98
2018-11-03T08:30:01.775Z,1013.89
2018-11-03T08:35:02.094Z,1013.93
2018-11-03T08:40:01.422Z,1013.93
2018-11-03T08:45:01.745Z,1013.87
2018-11-03T08:50:02.008Z,1013.89
2018-11-03T08:55:01.327Z,1013.83
2018-11-03T09:00:01.936Z,1013.9
2018-11-03T09:05:01.975Z,1013.87
2018-11-03T09:10:01.676Z,1013.76
2018-11-03T09:15:02.723Z,1013.64
2018-11-03T09:20:01.292Z,1013.67
2018-11-03T09:25:01.880Z,1013.71
2018-11-03T09:30:01.452Z,1013.67
2018-11-03T09:35:02.149Z,1013.73
2018-11-03T09:40:01.487Z,1013.78
2018-11-03T09:45:02.174Z,1013.69
2018-11-03T09:50:01.586Z,1013.66
2018-11-03T09:55:01.903Z,1013.6
2018-11-03T10:00:02.178Z,1013.53
2018-11-03T10:05:01.454Z,1013.55
2018-11-03T10:10:01.745Z,1013.56
2018-11-03T10:15:02.029Z,1013.5
2018-11-03T10:20:01.338Z,1013.42
2018-11-03T10:25:01.613Z,1013.36
2018-11-03T10:30:01.904Z,1013.24
2018-11-03T10:35:02.213Z,1013.16
2018-11-03T10:40:01.531Z,1013.2
2018-11-03T10:45:01.801Z,1013.16
2018-11-03T10:50:02.111Z,1013.11
2018-11-03T10:55:01.370Z,1013.04
2018-11-03T11:00:01.717Z,1012.93
2018-11-03T11:05:02.019Z,1012.97
2018-11-03T11:10:01.349Z,1012.92
2018-11-03T11:15:01.715Z,1012.88
2018-11-03T11:20:02.029Z,1012.86
2018-11-03T11:25:02.181Z,1012.75
2018-11-03T11:30:01.646Z,1012.61
2018-11-03T11:35:01.993Z,1012.53
2018-11-03T11:40:01.282Z,1012.5
2018-11-03T11:45:01.652Z,1012.42
2018-11-03T11:50:02.002Z,1012.39
2018-11-03T11:55:01.602Z,1012.28
2018-11-03T12:00:01.956Z,1012.29
2018-11-03T12:05:02.293Z,1012.2
2018-11-03T12:10:02.127Z,1012.17
2018-11-03T12:15:01.390Z,1012.09
2018-11-03T12:20:01.714Z,1012.1
2018-11-03T12:25:01.997Z,1012.13
2018-11-03T12:30:01.422Z,1012.06
2018-11-03T12:35:01.755Z,1011.96
2018-11-03T12:40:02.098Z,1011.91
2018-11-03T12:45:01.397Z,1011.97
2018-11-03T12:50:01.762Z,1011.83
2018-11-03T12:55:02.055Z,1011.76
2018-11-03T13:00:01.377Z,1011.75
2018-11-03T13:05:01.855Z,1011.69
2018-11-03T13:10:02.526Z,1011.64
2018-11-03T13:15:01.848Z,1011.54
2018-11-03T13:20:02.106Z,1011.53
2018-11-03T13:25:01.407Z,1011.47
2018-11-03T13:30:01.717Z,1011.42
2018-11-03T13:35:02.560Z,1011.39
2018-11-03T13:40:01.937Z,1011.35
2018-11-03T13:45:02.165Z,1011.35
2018-11-03T13:50:01.437Z,1011.21
2018-11-03T13:55:01.758Z,1011.07
2018-11-03T14:00:02.000Z,1011.05
2018-11-03T14:05:01.298Z,1011.05
2018-11-03T14:10:01.562Z,1011.02
2018-11-03T14:15:01.856Z,1010.85
2018-11-03T14:20:02.152Z,1010.87
2018-11-03T14:25:01.497Z,1010.9
2018-11-03T14:30:01.832Z,1010.89
2018-11-03T14:35:02.183Z,1010.89
2018-11-03T14:40:01.529Z,1010.85
2018-11-03T14:45:02.121Z,1010.82
2018-11-03T14:50:01.460Z,1010.72
2018-11-03T14:55:01.994Z,1010.66
2018-11-03T15:00:01.298Z,1010.56
2018-11-03T15:05:01.588Z,1010.52
2018-11-03T15:10:01.848Z,1010.46
2018-11-03T15:15:02.706Z,1010.4
2018-11-03T15:20:02.067Z,1010.23
2018-11-03T15:25:01.367Z,1010.23
2018-11-03T15:30:01.660Z,1010.28
2018-11-03T15:35:02.478Z,1010.26
2018-11-03T15:40:01.820Z,1010.15
2018-11-03T15:45:02.080Z,1010.12
2018-11-03T15:50:01.368Z,1010.04
2018-11-03T15:55:01.682Z,1010.01
2018-11-03T16:00:01.957Z,1009.96
2018-11-03T16:05:02.223Z,1009.81
2018-11-03T16:10:01.521Z,1009.81
2018-11-03T16:15:01.870Z,1009.74
2018-11-03T16:20:02.125Z,1009.7
2018-11-03T16:25:01.419Z,1009.63
2018-11-03T16:30:01.713Z,1009.62
2018-11-03T16:35:02.002Z,1009.64
2018-11-03T16:40:01.296Z,1009.69
2018-11-03T16:45:01.577Z,1009.62
2018-11-03T16:50:01.863Z,1009.65
2018-11-03T16:55:02.132Z,1009.58
2018-11-03T17:00:01.412Z,1009.59
2018-11-03T17:05:01.789Z,1009.56
2018-11-03T17:10:02.127Z,1009.54
2018-11-03T17:15:01.444Z,1009.41
2018-11-03T17:20:01.767Z,1009.38
2018-11-03T17:25:02.228Z,1009.37
2018-11-03T17:30:01.625Z,1009.3
2018-11-03T17:35:01.950Z,1009.27
2018-11-03T17:40:02.193Z,1009.29
2018-11-03T17:45:01.465Z,1009.26
2018-11-03T17:50:01.925Z,1009.24
2018-11-03T17:55:02.177Z,1009.28
2018-11-03T18:00:02.037Z,1009.23
2018-11-03T18:05:01.455Z,1009.16
2018-11-03T18:10:01.864Z,1009.22
2018-11-03T18:15:02.102Z,1009.25
2018-11-03T18:20:01.402Z,1009.27
2018-11-03T18:25:01.674Z,1009.22
2018-11-03T18:30:02.013Z,1009.15
2018-11-03T18:35:01.358Z,1009.05
2018-11-03T18:40:01.676Z,1008.99
2018-11-03T18:45:02.042Z,1008.95
2018-11-03T18:50:01.358Z,1008.94
2018-11-03T18:55:01.663Z,1008.95
2018-11-03T19:00:01.946Z,1008.97
2018-11-03T19:05:02.245Z,1008.89
2018-11-03T19:10:01.515Z,1008.9
2018-11-03T19:15:01.787Z,1008.84
2018-11-03T19:20:02.053Z,1008.81
2018-11-03T19:25:01.381Z,1008.71
2018-11-03T19:30:01.816Z,1008.74
2018-11-03T19:35:02.095Z,1008.64
2018-11-03T19:40:01.367Z,1008.54
2018-11-03T19:45:01.675Z,1008.52
2018-11-03T19:50:01.969Z,1008.49
2018-11-03T19:55:02.210Z,1008.54
2018-11-03T20:00:01.503Z,1008.49
2018-11-03T20:05:01.805Z,1008.56
2018-11-03T20:10:02.481Z,1008.46
2018-11-03T20:15:01.860Z,1008.45
2018-11-03T20:20:02.151Z,1008.43
2018-11-03T20:25:01.455Z,1008.42
2018-11-03T20:30:01.749Z,1008.3
2018-11-03T20:35:02.035Z,1008.22
2018-11-03T20:40:01.341Z,1008.23
2018-11-03T20:45:01.642Z,1008.15
2018-11-03T20:50:01.963Z,1008.1
2018-11-03T20:55:02.253Z,1008.05
2018-11-03T21:00:01.517Z,1007.89
2018-11-03T21:05:01.810Z,1007.92
2018-11-03T21:10:02.057Z,1007.9
2018-11-03T21:15:01.697Z,1007.87
2018-11-03T21:20:01.979Z,1007.83
2018-11-03T21:25:02.220Z,1007.82
2018-11-03T21:30:01.737Z,1007.75
2018-11-03T21:35:02.062Z,1007.61
2018-11-03T21:40:01.354Z,1007.56
2018-11-03T21:45:01.678Z,1007.56
2018-11-03T21:50:02.003Z,1007.45
2018-11-03T21:55:01.391Z,1007.36
2018-11-03T22:00:01.708Z,1007.29
2018-11-03T22:05:01.977Z,1007.22
2018-11-03T22:10:02.239Z,1007.19
2018-11-03T22:15:01.530Z,1007.15
2018-11-03T22:20:01.829Z,1007.06
2018-11-03T22:25:02.090Z,1007.01
2018-11-03T22:30:01.394Z,1006.99
2018-11-03T22:35:01.665Z,1006.91
2018-11-03T22:40:01.959Z,1006.86
2018-11-03T22:45:02.216Z,1006.77
2018-11-03T22:50:01.510Z,1006.63
2018-11-03T22:55:01.829Z,1006.5
2018-11-03T23:00:02.083Z,1006.42
2018-11-03T23:05:01.463Z,1006.32
2018-11-03T23:10:01.745Z,1006.26
2018-11-03T23:15:02.019Z,1006.19
2018-11-03T23:20:01.313Z,1006.16
2018-11-03T23:25:01.653Z,1006.09
2018-11-03T23:30:02.909Z,1006.06
2018-11-03T23:35:01.479Z,1006.01
2018-11-03T23:40:01.754Z,1005.93
2018-11-03T23:45:02.064Z,1005.88
2018-11-03T23:50:01.357Z,1005.82
2018-11-03T23:55:01.641Z,1005.74
